Time;durP1;ratioP1;P1;durP2;ratioP2;P2;SDS_P1;SDS_P2;PMS_P1;PMS_P2;Temp;Humidity;BMP_temperature;BMP_pressure;BME280_temperature;BME280_humidity;BME280_pressure;Samples;Min_cycle;Max_cycle;Signal;HPM_P1;HPM_P2
2022/01/29 00:02:47;;;;;;;28.87;15.13;;;;;;;;;;6201829;28;20510;-67
2022/01/29 00:06:09;;;;;;;22.00;14.43;;;;;;;;;;6188019;28;20328;-66
2022/01/29 00:09:29;;;;;;;16.20;10.80;;;;;;;;;;6201304;28;20237;-66
2022/01/29 00:12:49;;;;;;;27.73;16.63;;;;;;;;;;6199148;28;20323;-65
2022/01/29 00:16:10;;;;;;;24.67;18.10;;;;;;;;;;6194709;28;20233;-65
2022/01/29 00:19:30;;;;;;;28.07;17.07;;;;;;;;;;6204093;28;20316;-64
2022/01/29 00:22:52;;;;;;;29.57;15.83;;;;;;;;;;6206044;28;20238;-65
2022/01/29 00:26:13;;;;;;;28.10;17.47;;;;;;;;;;6209172;28;20608;-65
2022/01/29 00:29:34;;;;;;;26.83;19.37;;;;;;;;;;6210271;28;20248;-65
2022/01/29 00:32:55;;;;;;;20.40;17.43;;;;;;;;;;6206916;28;20237;-63
2022/01/29 00:36:16;;;;;;;29.77;18.80;;;;;;;;;;6203007;28;20241;-64
2022/01/29 00:39:37;;;;;;;27.63;17.77;;;;;;;;;;6195102;28;20567;-64
2022/01/29 00:42:58;;;;;;;36.17;21.53;;;;;;;;;;6205842;28;20233;-64
2022/01/29 00:46:19;;;;;;;32.27;20.27;;;;;;;;;;6205377;28;20307;-62
2022/01/29 00:49:39;;;;;;;23.13;20.00;;;;;;;;;;6205438;28;20244;-64
2022/01/29 00:53:00;;;;;;;28.97;20.27;;;;;;;;;;6210911;28;20257;-63
2022/01/29 00:56:22;;;;;;;25.80;22.90;;;;;;;;;;6214725;28;20308;-64
2022/01/29 00:59:42;;;;;;;28.57;22.57;;;;;;;;;;6216094;28;20611;-64
2022/01/29 01:03:03;;;;;;;30.47;23.13;;;;;;;;;;6208357;28;20229;-63
2022/01/29 01:06:23;;;;;;;27.70;21.23;;;;;;;;;;6209960;28;20233;-64
2022/01/29 01:09:44;;;;;;;33.07;24.97;;;;;;;;;;6206820;28;20237;-63
2022/01/29 01:13:06;;;;;;;35.37;26.53;;;;;;;;;;6212027;28;20229;-62
2022/01/29 01:16:26;;;;;;;37.37;28.93;;;;;;;;;;6207799;28;20225;-64
2022/01/29 01:19:47;;;;;;;47.37;30.07;;;;;;;;;;6207268;28;20737;-64
2022/01/29 01:23:08;;;;;;;36.77;28.50;;;;;;;;;;6211363;28;20258;-65
2022/01/29 01:26:28;;;;;;;34.60;25.67;;;;;;;;;;6208726;28;21014;-63
2022/01/29 01:29:50;;;;;;;41.63;26.93;;;;;;;;;;6207117;28;20356;-65
2022/01/29 01:33:11;;;;;;;37.20;29.00;;;;;;;;;;6213468;28;20257;-64
2022/01/29 01:36:34;;;;;;;42.00;29.97;;;;;;;;;;6209449;28;20225;-65
2022/01/29 01:39:56;;;;;;;38.30;31.20;;;;;;;;;;6207921;28;20237;-64
2022/01/29 01:43:16;;;;;;;47.17;32.97;;;;;;;;;;6208410;28;20260;-65
2022/01/29 01:46:38;;;;;;;43.17;31.77;;;;;;;;;;6208232;28;20229;-64
2022/01/29 01:49:59;;;;;;;47.00;34.40;;;;;;;;;;6204354;28;20644;-64
2022/01/29 01:53:19;;;;;;;50.23;37.13;;;;;;;;;;6202979;28;20712;-64
2022/01/29 01:56:40;;;;;;;42.13;34.93;;;;;;;;;;6207894;28;20233;-65
2022/01/29 02:00:01;;;;;;;45.23;33.57;;;;;;;;;;6210697;28;20626;-65
2022/01/29 02:03:23;;;;;;;45.80;37.47;;;;;;;;;;6210556;28;20308;-64
2022/01/29 02:06:43;;;;;;;49.70;36.47;;;;;;;;;;6213930;28;20233;-64
2022/01/29 02:10:07;;;;;;;55.13;39.83;;;;;;;;;;6207294;28;20233;-65
2022/01/29 02:13:29;;;;;;;51.93;39.33;;;;;;;;;;6203980;28;20244;-65
2022/01/29 02:16:49;;;;;;;58.47;41.07;;;;;;;;;;6209148;28;20229;-64
2022/01/29 02:20:11;;;;;;;47.93;36.77;;;;;;;;;;6209165;28;20233;-64
2022/01/29 02:23:34;;;;;;;57.67;41.73;;;;;;;;;;6209157;28;20328;-65
2022/01/29 02:26:55;;;;;;;53.73;39.53;;;;;;;;;;6211211;28;20236;-64
2022/01/29 02:30:16;;;;;;;52.73;37.57;;;;;;;;;;6213378;28;20234;-64
2022/01/29 02:33:39;;;;;;;52.70;41.60;;;;;;;;;;6206277;28;20233;-64
2022/01/29 02:37:00;;;;;;;50.40;37.93;;;;;;;;;;6211068;28;20233;-64
2022/01/29 02:40:22;;;;;;;55.87;41.70;;;;;;;;;;6209089;28;20253;-64
2022/01/29 02:43:46;;;;;;;56.67;40.00;;;;;;;;;;6206894;28;20788;-65
2022/01/29 02:47:25;;;;;;;49.73;41.17;;;;;;;;;;6212260;28;20230;-64
2022/01/29 02:50:46;;;;;;;46.83;37.47;;;;;;;;;;6211935;28;20229;-65
2022/01/29 02:54:06;;;;;;;51.33;40.50;;;;;;;;;;6208954;28;20240;-64
2022/01/29 02:57:29;;;;;;;49.20;39.10;;;;;;;;;;6209750;28;20229;-65
2022/01/29 03:00:49;;;;;;;53.53;41.23;;;;;;;;;;6207081;28;20233;-64
2022/01/29 03:04:10;;;;;;;44.13;34.17;;;;;;;;;;6208759;28;20240;-65
2022/01/29 03:07:30;;;;;;;46.67;36.37;;;;;;;;;;6210378;28;20236;-65
2022/01/29 03:10:51;;;;;;;53.80;39.67;;;;;;;;;;6208083;28;20238;-65
2022/01/29 03:14:13;;;;;;;51.77;38.93;;;;;;;;;;6208742;28;20249;-64
2022/01/29 03:17:34;;;;;;;49.13;40.23;;;;;;;;;;6210861;28;20316;-65
2022/01/29 03:20:55;;;;;;;50.17;37.40;;;;;;;;;;6210455;28;20525;-65
2022/01/29 03:24:15;;;;;;;51.43;37.53;;;;;;;;;;6208964;28;20310;-65
2022/01/29 03:27:36;;;;;;;49.67;34.70;;;;;;;;;;6205490;28;20229;-65
2022/01/29 03:30:58;;;;;;;50.60;36.00;;;;;;;;;;6201211;28;20614;-65
2022/01/29 03:34:19;;;;;;;52.93;40.20;;;;;;;;;;6208404;28;20516;-64
2022/01/29 03:37:40;;;;;;;51.07;38.93;;;;;;;;;;6207780;28;20232;-64
2022/01/29 03:41:01;;;;;;;50.87;38.73;;;;;;;;;;6198519;28;20558;-65
2022/01/29 03:44:22;;;;;;;53.93;38.53;;;;;;;;;;6205583;28;20502;-65
2022/01/29 03:47:44;;;;;;;50.90;39.20;;;;;;;;;;6209715;28;20331;-65
2022/01/29 03:51:04;;;;;;;45.70;34.57;;;;;;;;;;6207799;28;20355;-64
2022/01/29 03:54:24;;;;;;;48.00;35.43;;;;;;;;;;6206246;28;20595;-65
2022/01/29 03:57:45;;;;;;;46.30;34.03;;;;;;;;;;6208525;28;20467;-64
2022/01/29 04:01:06;;;;;;;50.70;37.67;;;;;;;;;;6196080;28;20229;-64
2022/01/29 04:04:28;;;;;;;43.90;32.17;;;;;;;;;;6207345;28;20241;-63
2022/01/29 04:07:48;;;;;;;39.47;29.10;;;;;;;;;;6206921;28;20253;-62
2022/01/29 04:11:10;;;;;;;43.27;34.83;;;;;;;;;;6201659;28;20232;-64
2022/01/29 04:14:36;;;;;;;38.90;27.97;;;;;;;;;;6212157;28;20228;-65
2022/01/29 04:17:57;;;;;;;37.20;30.07;;;;;;;;;;6219831;28;20229;-64
2022/01/29 04:21:19;;;;;;;47.07;34.77;;;;;;;;;;6210137;28;20225;-64
2022/01/29 04:24:39;;;;;;;43.53;31.60;;;;;;;;;;6212753;28;20229;-64
2022/01/29 04:28:00;;;;;;;38.17;32.73;;;;;;;;;;6211393;28;20241;-62
2022/01/29 04:31:21;;;;;;;36.23;28.47;;;;;;;;;;6211929;28;20232;-65
2022/01/29 04:34:42;;;;;;;37.57;28.17;;;;;;;;;;6207849;28;20572;-64
2022/01/29 04:38:04;;;;;;;44.07;34.00;;;;;;;;;;6211990;28;20738;-63
2022/01/29 04:41:24;;;;;;;38.57;32.37;;;;;;;;;;6211882;28;20513;-65
2022/01/29 04:44:45;;;;;;;37.43;32.50;;;;;;;;;;6207281;28;20221;-64
2022/01/29 04:48:05;;;;;;;40.20;33.30;;;;;;;;;;6210598;28;20229;-64
2022/01/29 04:51:26;;;;;;;45.83;35.07;;;;;;;;;;6211677;28;20229;-64
2022/01/29 04:54:48;;;;;;;44.13;34.47;;;;;;;;;;6214067;28;20229;-65
2022/01/29 04:58:09;;;;;;;41.60;32.73;;;;;;;;;;6209813;28;20312;-64
2022/01/29 05:01:29;;;;;;;49.17;34.40;;;;;;;;;;6203962;28;20276;-66
2022/01/29 05:04:50;;;;;;;43.17;35.37;;;;;;;;;;6214856;28;20981;-65
2022/01/29 05:08:11;;;;;;;45.77;36.03;;;;;;;;;;6222401;28;20233;-64
2022/01/29 05:11:34;;;;;;;43.27;36.50;;;;;;;;;;6212842;28;20666;-64
2022/01/29 05:15:07;;;;;;;39.50;30.73;;;;;;;;;;6211446;28;20221;-63
2022/01/29 05:29:36;;;;;;;43.50;33.33;;;;;;;;;;6209685;28;20263;-64
2022/01/29 05:32:57;;;;;;;40.00;33.73;;;;;;;;;;6210478;28;20557;-65
2022/01/29 05:36:17;;;;;;;35.60;26.90;;;;;;;;;;6210366;28;20232;-63
2022/01/29 05:39:38;;;;;;;44.50;34.27;;;;;;;;;;6209669;28;20685;-64
2022/01/29 05:42:58;;;;;;;35.70;30.60;;;;;;;;;;6212470;28;20236;-65
2022/01/29 05:46:20;;;;;;;38.43;30.50;;;;;;;;;;6205538;28;20225;-64
2022/01/29 05:49:40;;;;;;;36.03;30.77;;;;;;;;;;6203467;28;20229;-65
2022/01/29 05:53:01;;;;;;;41.13;30.37;;;;;;;;;;6206831;28;20237;-65
2022/01/29 05:56:21;;;;;;;38.33;27.73;;;;;;;;;;6212726;28;20225;-62
2022/01/29 05:59:42;;;;;;;32.80;28.17;;;;;;;;;;6210030;28;20232;-64
2022/01/29 06:03:04;;;;;;;39.00;28.90;;;;;;;;;;6205726;28;20237;-64
2022/01/29 06:06:24;;;;;;;32.20;26.60;;;;;;;;;;6211569;28;20230;-62
2022/01/29 06:09:46;;;;;;;28.40;23.27;;;;;;;;;;6200995;28;20237;-65
2022/01/29 06:13:08;;;;;;;29.53;22.97;;;;;;;;;;6209217;28;20229;-63
2022/01/29 06:16:29;;;;;;;30.37;24.47;;;;;;;;;;6211487;28;20776;-65
2022/01/29 06:19:52;;;;;;;30.80;24.30;;;;;;;;;;6201585;28;20233;-64
2022/01/29 06:23:13;;;;;;;29.70;26.57;;;;;;;;;;6204554;28;20253;-64
2022/01/29 06:26:34;;;;;;;36.37;26.80;;;;;;;;;;6209983;28;20229;-64
2022/01/29 06:29:54;;;;;;;33.73;26.37;;;;;;;;;;6209654;28;20233;-63
2022/01/29 06:33:15;;;;;;;28.33;24.60;;;;;;;;;;6208242;28;20228;-64
2022/01/29 06:36:37;;;;;;;31.90;26.33;;;;;;;;;;6203582;28;20248;-64
2022/01/29 06:39:57;;;;;;;31.40;26.83;;;;;;;;;;6208880;28;20608;-63
2022/01/29 06:43:18;;;;;;;32.83;25.77;;;;;;;;;;6206875;28;20244;-64
2022/01/29 06:46:39;;;;;;;39.27;29.37;;;;;;;;;;6207472;28;20546;-63
2022/01/29 06:49:59;;;;;;;36.17;28.93;;;;;;;;;;6210313;28;20237;-64
2022/01/29 06:53:21;;;;;;;33.37;27.73;;;;;;;;;;6206569;28;20228;-64
2022/01/29 06:56:42;;;;;;;33.63;26.87;;;;;;;;;;6209536;28;20545;-64
2022/01/29 07:00:02;;;;;;;37.20;31.43;;;;;;;;;;6204360;28;20669;-63
2022/01/29 07:03:23;;;;;;;44.90;32.37;;;;;;;;;;6205004;28;20653;-64
2022/01/29 07:06:44;;;;;;;45.57;32.67;;;;;;;;;;6205528;28;20245;-64
2022/01/29 07:10:07;;;;;;;42.83;31.90;;;;;;;;;;6207690;28;20229;-64
2022/01/29 07:13:28;;;;;;;39.90;30.90;;;;;;;;;;6213055;28;20236;-65
2022/01/29 07:16:48;;;;;;;40.57;30.47;;;;;;;;;;6206676;28;20236;-64
2022/01/29 07:20:09;;;;;;;37.60;28.10;;;;;;;;;;6210951;28;20331;-65
2022/01/29 07:23:30;;;;;;;37.67;29.83;;;;;;;;;;6207159;28;20233;-65
2022/01/29 07:26:52;;;;;;;40.03;30.90;;;;;;;;;;6191017;28;20360;-64
2022/01/29 07:30:13;;;;;;;32.30;24.73;;;;;;;;;;6196953;28;20253;-64
2022/01/29 07:33:33;;;;;;;40.97;28.90;;;;;;;;;;6199622;28;20290;-63
2022/01/29 07:36:54;;;;;;;32.63;26.83;;;;;;;;;;6187556;28;20250;-65
2022/01/29 07:40:15;;;;;;;28.73;24.10;;;;;;;;;;6190217;28;20229;-66
2022/01/29 07:43:37;;;;;;;33.83;25.60;;;;;;;;;;6202494;28;20237;-65
2022/01/29 07:46:57;;;;;;;29.73;23.40;;;;;;;;;;6195682;28;20233;-64
2022/01/29 07:50:18;;;;;;;27.80;22.87;;;;;;;;;;6191233;28;20228;-64
2022/01/29 07:53:38;;;;;;;28.70;21.57;;;;;;;;;;6189822;28;20598;-64
2022/01/29 07:56:59;;;;;;;24.17;20.50;;;;;;;;;;6188834;28;20228;-66
2022/01/29 08:00:20;;;;;;;25.47;21.57;;;;;;;;;;6198138;28;20579;-65
2022/01/29 08:03:41;;;;;;;26.37;21.63;;;;;;;;;;6207166;28;20233;-65
2022/01/29 08:07:01;;;;;;;23.03;19.60;;;;;;;;;;6209758;28;20232;-64
2022/01/29 08:10:22;;;;;;;23.27;18.53;;;;;;;;;;6197534;28;20614;-66
2022/01/29 08:13:43;;;;;;;24.93;18.70;;;;;;;;;;6196546;28;20237;-66
2022/01/29 08:17:05;;;;;;;18.80;16.53;;;;;;;;;;6197982;28;20237;-64
2022/01/29 08:20:26;;;;;;;18.83;15.87;;;;;;;;;;6199381;28;20316;-64
2022/01/29 08:23:46;;;;;;;20.60;18.00;;;;;;;;;;6195219;28;20236;-65
2022/01/29 08:27:07;;;;;;;16.63;14.47;;;;;;;;;;6198858;28;20233;-64
2022/01/29 08:30:27;;;;;;;20.00;16.10;;;;;;;;;;6197220;28;20280;-65
2022/01/29 08:33:49;;;;;;;20.07;15.27;;;;;;;;;;6197886;28;20237;-64
2022/01/29 08:37:10;;;;;;;17.37;15.70;;;;;;;;;;6195444;28;20233;-65
2022/01/29 08:40:31;;;;;;;16.00;14.37;;;;;;;;;;6192985;28;20236;-65
2022/01/29 08:43:52;;;;;;;14.73;13.17;;;;;;;;;;6201216;28;20237;-64
2022/01/29 08:47:12;;;;;;;16.20;14.13;;;;;;;;;;6191805;28;20240;-65
2022/01/29 08:50:34;;;;;;;16.90;15.23;;;;;;;;;;6190229;28;20237;-66
2022/01/29 08:53:55;;;;;;;15.20;13.50;;;;;;;;;;6195765;28;20308;-64
2022/01/29 08:57:17;;;;;;;14.83;13.33;;;;;;;;;;6203250;28;20249;-64
2022/01/29 09:00:38;;;;;;;15.30;13.73;;;;;;;;;;6203347;28;20260;-64
2022/01/29 09:03:59;;;;;;;13.90;12.50;;;;;;;;;;6207229;28;20228;-65
2022/01/29 09:07:21;;;;;;;13.33;12.07;;;;;;;;;;6205565;28;20260;-64
2022/01/29 09:10:41;;;;;;;11.37;9.63;;;;;;;;;;6206471;28;20233;-65
2022/01/29 09:14:02;;;;;;;13.10;11.80;;;;;;;;;;6198299;28;20237;-65
2022/01/29 09:17:22;;;;;;;13.73;12.33;;;;;;;;;;6183196;28;20234;-62
2022/01/29 09:20:43;;;;;;;12.60;11.40;;;;;;;;;;6196746;28;20242;-64
2022/01/29 09:24:05;;;;;;;12.10;10.83;;;;;;;;;;6197043;28;21095;-65
2022/01/29 09:27:25;;;;;;;11.30;10.30;;;;;;;;;;6200313;28;20230;-64
2022/01/29 09:30:46;;;;;;;11.03;10.03;;;;;;;;;;6195092;28;21421;-64
2022/01/29 09:34:06;;;;;;;10.87;9.87;;;;;;;;;;6196619;28;20237;-64
2022/01/29 09:37:27;;;;;;;11.17;9.03;;;;;;;;;;6193598;28;20225;-64
2022/01/29 09:40:49;;;;;;;11.07;9.97;;;;;;;;;;6195132;28;20249;-64
2022/01/29 09:44:09;;;;;;;10.13;9.23;;;;;;;;;;6192830;28;20312;-63
2022/01/29 09:47:30;;;;;;;10.90;9.80;;;;;;;;;;6203154;28;20229;-63
2022/01/29 09:50:51;;;;;;;11.07;10.07;;;;;;;;;;6202277;28;20232;-64
2022/01/29 09:54:12;;;;;;;10.57;9.57;;;;;;;;;;6201673;28;20232;-64
2022/01/29 09:57:34;;;;;;;8.93;8.07;;;;;;;;;;6205519;28;20267;-65
2022/01/29 10:00:55;;;;;;;10.60;9.60;;;;;;;;;;6199926;28;20257;-64
2022/01/29 10:04:16;;;;;;;11.17;9.40;;;;;;;;;;6199904;28;20233;-64
2022/01/29 10:07:36;;;;;;;11.23;9.63;;;;;;;;;;6200911;28;20253;-64
2022/01/29 10:10:58;;;;;;;10.03;8.93;;;;;;;;;;6202936;28;20250;-65
2022/01/29 10:14:20;;;;;;;11.07;9.97;;;;;;;;;;6213540;28;20293;-64
2022/01/29 10:17:42;;;;;;;10.77;9.67;;;;;;;;;;6214938;28;20244;-65
2022/01/29 10:21:09;;;;;;;9.43;8.07;;;;;;;;;;6203576;28;20229;-64
2022/01/29 10:24:30;;;;;;;10.23;9.23;;;;;;;;;;6205852;28;20229;-63
2022/01/29 10:28:11;;;;;;;8.40;7.60;;;;;;;;;;6176048;28;20656;-63
2022/01/29 10:31:42;;;;;;;9.87;8.87;;;;;;;;;;6194228;28;21541;-64
2022/01/29 10:35:03;;;;;;;9.70;8.70;;;;;;;;;;6188281;28;20685;-64
2022/01/29 10:38:25;;;;;;;8.97;7.87;;;;;;;;;;6201718;28;20233;-63
2022/01/29 10:41:46;;;;;;;9.50;8.60;;;;;;;;;;6206339;28;20229;-64
2022/01/29 10:45:07;;;;;;;7.80;7.00;;;;;;;;;;6199321;28;20237;-63
2022/01/29 10:48:43;;;;;;;11.33;8.47;;;;;;;;;;6200408;28;20240;-63
2022/01/29 10:52:05;;;;;;;7.53;6.57;;;;;;;;;;6203186;28;20328;-64
2022/01/29 10:55:25;;;;;;;9.97;7.53;;;;;;;;;;6198284;28;20237;-64
2022/01/29 10:58:50;;;;;;;8.77;7.87;;;;;;;;;;6195212;28;20237;-64
2022/01/29 11:02:12;;;;;;;9.60;8.70;;;;;;;;;;6195632;28;20233;-64
2022/01/29 11:05:36;;;;;;;8.63;7.83;;;;;;;;;;6210057;28;20232;-64
2022/01/29 11:08:57;;;;;;;8.80;7.90;;;;;;;;;;6207684;28;20236;-64
2022/01/29 11:12:19;;;;;;;7.53;6.90;;;;;;;;;;6208807;28;20232;-62
2022/01/29 11:15:40;;;;;;;8.30;7.50;;;;;;;;;;6200782;28;20229;-64
2022/01/29 11:19:00;;;;;;;8.30;7.53;;;;;;;;;;6213818;28;20888;-64
2022/01/29 11:22:23;;;;;;;8.00;7.20;;;;;;;;;;6204818;28;20229;-65
2022/01/29 11:25:44;;;;;;;7.70;6.90;;;;;;;;;;6209365;28;20232;-64
2022/01/29 11:29:24;;;;;;;8.90;8.07;;;;;;;;;;6201683;28;20244;-63
2022/01/29 11:32:45;;;;;;;8.07;7.30;;;;;;;;;;6209485;28;21673;-64
2022/01/29 11:36:05;;;;;;;9.87;8.87;;;;;;;;;;6204396;28;20278;-63
2022/01/29 11:39:29;;;;;;;10.37;9.47;;;;;;;;;;6196397;28;20582;-64
2022/01/29 11:42:53;;;;;;;10.60;9.50;;;;;;;;;;6193464;28;20241;-64
2022/01/29 11:46:30;;;;;;;12.63;9.23;;;;;;;;;;6189644;28;20225;-63
2022/01/29 11:49:51;;;;;;;9.63;8.73;;;;;;;;;;6197590;28;20329;-63
2022/01/29 11:53:12;;;;;;;9.57;8.73;;;;;;;;;;6207131;28;20315;-63
2022/01/29 11:56:35;;;;;;;10.33;7.47;;;;;;;;;;6205508;28;20226;-63
2022/01/29 11:59:56;;;;;;;10.13;9.13;;;;;;;;;;6202279;28;20245;-62
2022/01/29 12:03:37;;;;;;;8.70;7.97;;;;;;;;;;6207499;28;20246;-62
2022/01/29 12:07:10;;;;;;;10.53;8.77;;;;;;;;;;6212498;28;20597;-63
2022/01/29 12:10:34;;;;;;;9.40;7.93;;;;;;;;;;6197334;28;20232;-63
2022/01/29 12:14:10;;;;;;;9.03;6.00;;;;;;;;;;6202449;28;20655;-64
2022/01/29 12:17:35;;;;;;;8.77;7.80;;;;;;;;;;6197941;28;20513;-65
2022/01/29 12:20:56;;;;;;;6.27;5.77;;;;;;;;;;6211827;28;20233;-62
2022/01/29 12:24:20;;;;;;;6.73;6.13;;;;;;;;;;6201886;28;20237;-63
2022/01/29 12:27:41;;;;;;;7.60;6.77;;;;;;;;;;6206907;28;20244;-61
2022/01/29 12:31:05;;;;;;;7.27;6.27;;;;;;;;;;6207196;28;20554;-62
2022/01/29 12:34:28;;;;;;;9.47;6.93;;;;;;;;;;6202555;28;20245;-64
2022/01/29 12:37:53;;;;;;;6.30;5.80;;;;;;;;;;6215935;28;20316;-62
2022/01/29 12:41:23;;;;;;;7.47;6.87;;;;;;;;;;6214724;28;20228;-63
2022/01/29 12:44:54;;;;;;;7.30;5.60;;;;;;;;;;6212956;28;20510;-62
2022/01/29 12:48:16;;;;;;;6.47;5.80;;;;;;;;;;6212633;28;20237;-62
2022/01/29 12:51:49;;;;;;;5.83;5.27;;;;;;;;;;6215621;28;21729;-62
2022/01/29 12:55:13;;;;;;;5.83;5.23;;;;;;;;;;6216353;28;20359;-62
2022/01/29 12:58:34;;;;;;;5.67;5.17;;;;;;;;;;6214559;28;20225;-62
2022/01/29 13:01:56;;;;;;;6.73;4.37;;;;;;;;;;6211449;28;20337;-63
2022/01/29 13:05:17;;;;;;;7.73;5.57;;;;;;;;;;6213718;28;20328;-63
2022/01/29 13:08:39;;;;;;;6.10;5.57;;;;;;;;;;6226640;28;20234;-61
2022/01/29 13:12:01;;;;;;;7.57;5.33;;;;;;;;;;6216712;28;20225;-62
2022/01/29 13:15:33;;;;;;;5.53;3.70;;;;;;;;;;6218899;28;20229;-62
2022/01/29 13:18:56;;;;;;;6.17;4.27;;;;;;;;;;6220051;28;20221;-62
2022/01/29 13:22:17;;;;;;;6.10;5.00;;;;;;;;;;6216049;28;20237;-61
2022/01/29 13:25:40;;;;;;;6.03;3.37;;;;;;;;;;6215772;28;20237;-62
2022/01/29 13:29:05;;;;;;;16.00;4.23;;;;;;;;;;6211981;28;20226;-62
2022/01/29 13:32:28;;;;;;;7.90;3.63;;;;;;;;;;6214939;28;20225;-62
2022/01/29 13:35:49;;;;;;;3.43;2.53;;;;;;;;;;6218486;28;20237;-62
2022/01/29 13:39:10;;;;;;;6.10;2.50;;;;;;;;;;6221973;28;20290;-63
2022/01/29 13:42:34;;;;;;;5.47;2.97;;;;;;;;;;6215574;28;20308;-63
2022/01/29 13:45:56;;;;;;;5.20;2.73;;;;;;;;;;6213855;28;20240;-62
2022/01/29 13:49:29;;;;;;;6.07;2.80;;;;;;;;;;6217828;28;20229;-63
2022/01/29 13:52:57;;;;;;;4.70;2.40;;;;;;;;;;6216627;28;20252;-63
2022/01/29 13:56:20;;;;;;;4.20;2.27;;;;;;;;;;6217204;28;20618;-63
2022/01/29 13:59:42;;;;;;;6.20;2.33;;;;;;;;;;6209145;28;20673;-62
2022/01/29 14:03:03;;;;;;;3.53;2.67;;;;;;;;;;6211459;28;20256;-62
2022/01/29 14:06:30;;;;;;;7.17;3.30;;;;;;;;;;6215135;28;21235;-62
2022/01/29 14:09:56;;;;;;;5.87;3.00;;;;;;;;;;6211210;28;20225;-63
2022/01/29 14:13:17;;;;;;;5.93;2.53;;;;;;;;;;6211996;28;20261;-62
2022/01/29 14:16:39;;;;;;;3.13;2.40;;;;;;;;;;6213471;28;20241;-64
2022/01/29 14:20:00;;;;;;;4.97;2.27;;;;;;;;;;6213418;28;20229;-62
2022/01/29 14:23:21;;;;;;;5.33;3.03;;;;;;;;;;6214155;28;20320;-62
2022/01/29 14:26:41;;;;;;;6.17;2.57;;;;;;;;;;6201401;28;20237;-62
2022/01/29 14:30:04;;;;;;;7.17;3.13;;;;;;;;;;6200329;28;20229;-63
2022/01/29 14:33:26;;;;;;;5.27;2.03;;;;;;;;;;6206823;28;20229;-63
2022/01/29 14:36:47;;;;;;;4.07;2.50;;;;;;;;;;6210533;28;20253;-64
2022/01/29 14:40:10;;;;;;;8.77;3.17;;;;;;;;;;6201645;28;20260;-63
2022/01/29 14:43:32;;;;;;;4.13;2.03;;;;;;;;;;6211205;28;20320;-63
2022/01/29 14:46:53;;;;;;;7.23;3.57;;;;;;;;;;6210344;28;20240;-64
2022/01/29 14:50:15;;;;;;;3.30;2.33;;;;;;;;;;6204520;28;20237;-63
2022/01/29 14:53:36;;;;;;;6.43;3.37;;;;;;;;;;6207100;28;20224;-62
2022/01/29 14:56:57;;;;;;;6.83;2.67;;;;;;;;;;6211192;28;20623;-63
2022/01/29 15:00:18;;;;;;;5.60;2.43;;;;;;;;;;6195581;28;20240;-62
2022/01/29 15:03:39;;;;;;;6.50;2.47;;;;;;;;;;6193124;28;20682;-62
2022/01/29 15:07:01;;;;;;;8.60;2.87;;;;;;;;;;6192332;28;20683;-63
2022/01/29 15:10:22;;;;;;;3.70;3.17;;;;;;;;;;6188900;28;20241;-62
2022/01/29 15:13:42;;;;;;;5.27;3.10;;;;;;;;;;6191373;28;20611;-62
2022/01/29 15:17:03;;;;;;;8.47;2.80;;;;;;;;;;6167043;28;20246;-62
2022/01/29 15:20:24;;;;;;;7.53;3.13;;;;;;;;;;6191120;28;20245;-62
2022/01/29 15:23:46;;;;;;;5.37;2.77;;;;;;;;;;6186431;28;20245;-62
2022/01/29 15:27:06;;;;;;;8.07;2.53;;;;;;;;;;6189527;28;20229;-62
2022/01/29 15:30:27;;;;;;;7.83;2.77;;;;;;;;;;6196377;28;20226;-62
2022/01/29 15:33:48;;;;;;;6.57;2.83;;;;;;;;;;6168530;28;20238;-62
2022/01/29 15:37:09;;;;;;;4.20;2.57;;;;;;;;;;6182470;28;20238;-62
2022/01/29 15:40:31;;;;;;;10.37;3.70;;;;;;;;;;6193512;28;20284;-63
2022/01/29 15:43:52;;;;;;;7.23;2.40;;;;;;;;;;6192536;28;20234;-62
2022/01/29 15:47:12;;;;;;;10.27;3.57;;;;;;;;;;6196525;28;20785;-61
2022/01/29 15:50:33;;;;;;;13.63;3.60;;;;;;;;;;6198982;28;20277;-62
2022/01/29 15:53:53;;;;;;;7.80;3.20;;;;;;;;;;6210161;28;20233;-62
2022/01/29 15:57:17;;;;;;;10.63;3.70;;;;;;;;;;6204861;28;20228;-62
2022/01/29 16:00:39;;;;;;;10.53;3.47;;;;;;;;;;6204059;28;20241;-62
2022/01/29 16:04:00;;;;;;;15.27;4.60;;;;;;;;;;6209003;28;20646;-62
2022/01/29 16:07:20;;;;;;;8.23;3.27;;;;;;;;;;6210444;28;20489;-63
2022/01/29 16:10:41;;;;;;;10.73;3.10;;;;;;;;;;6206644;28;20251;-62
2022/01/29 16:14:02;;;;;;;12.40;3.70;;;;;;;;;;6205966;28;20225;-62
2022/01/29 16:17:23;;;;;;;14.33;5.77;;;;;;;;;;6209066;28;20240;-62
2022/01/29 16:20:43;;;;;;;25.50;6.00;;;;;;;;;;6209412;28;20221;-63
2022/01/29 16:24:04;;;;;;;18.07;4.87;;;;;;;;;;6207498;28;20253;-62
2022/01/29 16:27:24;;;;;;;12.57;4.10;;;;;;;;;;6209851;28;20237;-62
2022/01/29 16:30:48;;;;;;;15.37;5.30;;;;;;;;;;6205621;28;20260;-62
2022/01/29 16:34:10;;;;;;;21.57;6.60;;;;;;;;;;6203644;28;24963;-62
2022/01/29 16:37:31;;;;;;;16.10;4.77;;;;;;;;;;6208787;28;20233;-63
2022/01/29 16:40:51;;;;;;;13.53;4.93;;;;;;;;;;6210520;28;20324;-62
2022/01/29 16:44:13;;;;;;;17.33;5.70;;;;;;;;;;6209068;28;20237;-63
2022/01/29 16:47:35;;;;;;;17.40;5.43;;;;;;;;;;6204322;28;20237;-65
2022/01/29 16:50:55;;;;;;;17.43;5.23;;;;;;;;;;6208856;28;20233;-63
2022/01/29 16:54:16;;;;;;;16.20;6.23;;;;;;;;;;6207811;28;20575;-63
2022/01/29 16:57:36;;;;;;;12.80;5.30;;;;;;;;;;6203503;28;20238;-63
2022/01/29 17:00:57;;;;;;;23.43;6.30;;;;;;;;;;6204125;28;20233;-62
2022/01/29 17:04:19;;;;;;;17.30;5.17;;;;;;;;;;6207971;28;20233;-63
2022/01/29 17:07:39;;;;;;;13.03;5.60;;;;;;;;;;6201388;28;20265;-63
2022/01/29 17:11:00;;;;;;;15.83;5.57;;;;;;;;;;6196234;28;20237;-63
2022/01/29 17:14:20;;;;;;;14.97;6.00;;;;;;;;;;6210372;28;20272;-63
2022/01/29 17:17:41;;;;;;;22.87;6.67;;;;;;;;;;6207714;28;20353;-63
2022/01/29 17:21:03;;;;;;;26.70;8.87;;;;;;;;;;6206218;28;20508;-63
2022/01/29 17:24:24;;;;;;;28.27;9.10;;;;;;;;;;6213406;28;20233;-63
2022/01/29 17:27:44;;;;;;;22.77;7.93;;;;;;;;;;6211958;28;20264;-62
2022/01/29 17:31:05;;;;;;;26.13;8.43;;;;;;;;;;6215158;28;20233;-62
2022/01/29 17:34:26;;;;;;;27.70;7.93;;;;;;;;;;6210952;28;20263;-62
2022/01/29 17:37:51;;;;;;;30.47;9.70;;;;;;;;;;6214878;28;20511;-63
2022/01/29 17:41:12;;;;;;;28.83;8.73;;;;;;;;;;6216233;28;20225;-62
2022/01/29 17:44:33;;;;;;;20.53;6.60;;;;;;;;;;6223544;28;20249;-62
2022/01/29 17:47:54;;;;;;;39.47;10.13;;;;;;;;;;6204000;28;20237;-63
2022/01/29 17:51:14;;;;;;;33.20;10.00;;;;;;;;;;6208849;28;20237;-62
2022/01/29 17:54:36;;;;;;;35.30;9.87;;;;;;;;;;6219240;28;20245;-63
2022/01/29 17:57:56;;;;;;;38.27;9.70;;;;;;;;;;6215549;28;20816;-63
2022/01/29 18:01:17;;;;;;;31.83;8.03;;;;;;;;;;6209772;28;20360;-62
2022/01/29 18:04:37;;;;;;;29.63;9.97;;;;;;;;;;6198134;28;20571;-61
2022/01/29 18:07:58;;;;;;;26.07;10.60;;;;;;;;;;6197150;28;20321;-61
2022/01/29 18:11:20;;;;;;;25.00;7.40;;;;;;;;;;6205035;28;20830;-63
2022/01/29 18:14:41;;;;;;;26.80;9.43;;;;;;;;;;6203900;28;20259;-63
2022/01/29 18:18:01;;;;;;;25.83;8.77;;;;;;;;;;6203887;28;20229;-62
2022/01/29 18:21:22;;;;;;;41.17;10.43;;;;;;;;;;6190995;28;20229;-62
2022/01/29 18:24:43;;;;;;;24.23;9.67;;;;;;;;;;6198497;28;20238;-63
2022/01/29 18:28:13;;;;;;;36.07;11.93;;;;;;;;;;6202030;28;20218;-62
2022/01/29 18:31:34;;;;;;;33.63;9.27;;;;;;;;;;6201739;28;20273;-61
2022/01/29 18:34:54;;;;;;;34.33;11.03;;;;;;;;;;6214525;28;20529;-63
2022/01/29 18:38:16;;;;;;;30.93;9.90;;;;;;;;;;6206487;28;20229;-63
2022/01/29 18:41:37;;;;;;;33.87;9.93;;;;;;;;;;6220394;28;20232;-62
2022/01/29 18:44:59;;;;;;;24.70;9.03;;;;;;;;;;6210259;28;20236;-62
2022/01/29 18:48:20;;;;;;;31.33;11.03;;;;;;;;;;6212897;28;20240;-62
2022/01/29 18:51:40;;;;;;;33.77;10.50;;;;;;;;;;6213601;28;20229;-62
2022/01/29 18:55:01;;;;;;;31.37;10.73;;;;;;;;;;6206713;28;20233;-62
2022/01/29 18:58:22;;;;;;;45.57;12.97;;;;;;;;;;6210923;28;20233;-62
2022/01/29 19:01:43;;;;;;;25.23;9.87;;;;;;;;;;6202962;28;21456;-62
2022/01/29 19:05:04;;;;;;;33.30;9.73;;;;;;;;;;6212343;28;20237;-63
2022/01/29 19:08:25;;;;;;;29.70;11.10;;;;;;;;;;6209609;28;20264;-62
2022/01/29 19:11:46;;;;;;;32.43;9.80;;;;;;;;;;6207987;28;20229;-62
2022/01/29 19:15:07;;;;;;;40.33;11.80;;;;;;;;;;6207875;28;20225;-63
2022/01/29 19:18:29;;;;;;;35.97;10.70;;;;;;;;;;6198106;28;20236;-62
2022/01/29 19:21:50;;;;;;;36.47;10.90;;;;;;;;;;6215451;28;20296;-62
2022/01/29 19:25:11;;;;;;;36.93;11.43;;;;;;;;;;6211808;28;20244;-63
2022/01/29 19:28:32;;;;;;;33.93;10.60;;;;;;;;;;6211955;28;20221;-62
2022/01/29 19:31:52;;;;;;;24.50;7.87;;;;;;;;;;6207564;28;20233;-63
2022/01/29 19:35:14;;;;;;;38.23;10.60;;;;;;;;;;6212682;28;20268;-63
2022/01/29 19:38:35;;;;;;;23.60;7.97;;;;;;;;;;6210547;28;20233;-62
2022/01/29 19:41:57;;;;;;;24.30;7.40;;;;;;;;;;6208083;28;20629;-63
2022/01/29 19:45:18;;;;;;;17.77;5.43;;;;;;;;;;6211042;28;20237;-62
2022/01/29 19:48:38;;;;;;;22.60;7.10;;;;;;;;;;6215162;28;20229;-63
2022/01/29 19:52:00;;;;;;;19.43;6.43;;;;;;;;;;6207576;28;20221;-62
2022/01/29 19:55:21;;;;;;;20.70;7.40;;;;;;;;;;6210599;28;20980;-61
2022/01/29 19:58:41;;;;;;;21.10;7.80;;;;;;;;;;6212986;28;20240;-64